sensor_id;sensor_type;location;lat;lon;timestamp;pressure;altitude;pressure_sealevel;temperature;humidity
52441;BME280;39611;46.062;8.950;2023-01-28T00:01:15;96358.84;;;1.30;80.66
52441;BME280;39611;46.062;8.950;2023-01-28T00:03:42;96353.69;;;1.23;80.58
52441;BME280;39611;46.062;8.950;2023-01-28T00:06:12;96354.91;;;1.21;81.26
52441;BME280;39611;46.062;8.950;2023-01-28T00:08:39;96350.88;;;1.25;81.42
52441;BME280;39611;46.062;8.950;2023-01-28T00:11:09;96352.59;;;1.31;81.31
52441;BME280;39611;46.062;8.950;2023-01-28T00:13:36;96345.66;;;1.25;81.26
52441;BME280;39611;46.062;8.950;2023-01-28T00:16:04;96341.88;;;1.21;81.32
52441;BME280;39611;46.062;8.950;2023-01-28T00:18:32;96336.53;;;1.16;81.91
52441;BME280;39611;46.062;8.950;2023-01-28T00:23:28;96330.56;;;1.08;82.15
52441;BME280;39611;46.062;8.950;2023-01-28T00:25:59;96327.28;;;1.20;81.53
52441;BME280;39611;46.062;8.950;2023-01-28T00:28:26;96322.22;;;1.06;81.45
52441;BME280;39611;46.062;8.950;2023-01-28T00:30:52;96331.91;;;1.18;80.82
52441;BME280;39611;46.062;8.950;2023-01-28T00:33:19;96338.97;;;1.11;81.46
52441;BME280;39611;46.062;8.950;2023-01-28T00:35:45;96330.38;;;1.10;81.29
52441;BME280;39611;46.062;8.950;2023-01-28T00:38:12;96331.97;;;1.11;80.53
52441;BME280;39611;46.062;8.950;2023-01-28T00:40:38;96330.97;;;1.30;80.69
52441;BME280;39611;46.062;8.950;2023-01-28T00:43:05;96329.88;;;1.20;80.84
52441;BME280;39611;46.062;8.950;2023-01-28T00:45:31;96330.09;;;1.18;80.68
52441;BME280;39611;46.062;8.950;2023-01-28T00:47:57;96322.41;;;1.23;79.96
52441;BME280;39611;46.062;8.950;2023-01-28T00:50:24;96332.63;;;1.25;79.37
52441;BME280;39611;46.062;8.950;2023-01-28T00:52:50;96330.88;;;1.19;79.36
52441;BME280;39611;46.062;8.950;2023-01-28T00:55:17;96329.75;;;1.15;79.82
52441;BME280;39611;46.062;8.950;2023-01-28T00:57:43;96332.63;;;1.06;79.96
52441;BME280;39611;46.062;8.950;2023-01-28T01:00:10;96326.84;;;1.04;80.09
52441;BME280;39611;46.062;8.950;2023-01-28T01:02:36;96331.44;;;1.02;79.98
52441;BME280;39611;46.062;8.950;2023-01-28T01:05:06;96336.16;;;0.94;79.52
52441;BME280;39611;46.062;8.950;2023-01-28T01:07:32;96341.53;;;0.99;79.07
52441;BME280;39611;46.062;8.950;2023-01-28T01:10:12;96343.88;;;1.00;79.82
52441;BME280;39611;46.062;8.950;2023-01-28T01:12:39;96346.06;;;1.03;79.97
52441;BME280;39611;46.062;8.950;2023-01-28T01:15:07;96347.66;;;1.04;79.49
52441;BME280;39611;46.062;8.950;2023-01-28T01:17:40;96349.59;;;0.91;80.06
52441;BME280;39611;46.062;8.950;2023-01-28T01:20:12;96354.59;;;0.92;80.36
52441;BME280;39611;46.062;8.950;2023-01-28T01:22:39;96351.13;;;0.98;79.83
52441;BME280;39611;46.062;8.950;2023-01-28T01:25:07;96348.66;;;1.03;79.03
52441;BME280;39611;46.062;8.950;2023-01-28T01:27:35;96342.03;;;1.07;79.29
52441;BME280;39611;46.062;8.950;2023-01-28T01:30:01;96338.69;;;1.00;79.52
52441;BME280;39611;46.062;8.950;2023-01-28T01:32:29;96345.50;;;1.01;78.26
52441;BME280;39611;46.062;8.950;2023-01-28T01:34:56;96344.78;;;1.13;78.86
52441;BME280;39611;46.062;8.950;2023-01-28T01:37:23;96340.44;;;1.06;79.42
52441;BME280;39611;46.062;8.950;2023-01-28T01:39:49;96341.44;;;1.05;79.51
52441;BME280;39611;46.062;8.950;2023-01-28T01:42:16;96347.59;;;1.11;79.49
52441;BME280;39611;46.062;8.950;2023-01-28T01:47:26;96361.06;;;1.08;78.39
52441;BME280;39611;46.062;8.950;2023-01-28T01:49:56;96355.00;;;1.33;74.92
52441;BME280;39611;46.062;8.950;2023-01-28T01:52:27;96368.53;;;1.23;71.13
52441;BME280;39611;46.062;8.950;2023-01-28T01:54:57;96367.66;;;1.29;71.19
52441;BME280;39611;46.062;8.950;2023-01-28T01:57:28;96360.88;;;1.28;71.05
52441;BME280;39611;46.062;8.950;2023-01-28T01:59:57;96359.63;;;1.49;71.44
52441;BME280;39611;46.062;8.950;2023-01-28T02:02:37;96366.00;;;1.35;73.44
52441;BME280;39611;46.062;8.950;2023-01-28T02:05:06;96365.97;;;1.16;75.32
52441;BME280;39611;46.062;8.950;2023-01-28T02:07:33;96368.88;;;1.08;75.80
52441;BME280;39611;46.062;8.950;2023-01-28T02:09:59;96372.38;;;0.95;77.09
52441;BME280;39611;46.062;8.950;2023-01-28T02:12:33;96365.28;;;1.09;76.68
52441;BME280;39611;46.062;8.950;2023-01-28T02:17:31;96372.81;;;0.92;76.82
52441;BME280;39611;46.062;8.950;2023-01-28T02:20:09;96371.09;;;0.86;77.16
52441;BME280;39611;46.062;8.950;2023-01-28T02:25:49;96381.50;;;0.86;77.43
52441;BME280;39611;46.062;8.950;2023-01-28T02:28:22;96371.44;;;0.90;76.84
52441;BME280;39611;46.062;8.950;2023-01-28T02:33:44;96375.16;;;0.75;77.56
52441;BME280;39611;46.062;8.950;2023-01-28T02:36:38;96367.22;;;0.70;77.70
52441;BME280;39611;46.062;8.950;2023-01-28T02:39:07;96375.50;;;0.60;77.65
52441;BME280;39611;46.062;8.950;2023-01-28T02:41:55;96374.03;;;0.64;77.13
52441;BME280;39611;46.062;8.950;2023-01-28T02:44:22;96372.28;;;0.58;77.53
52441;BME280;39611;46.062;8.950;2023-01-28T02:46:51;96381.69;;;0.59;77.53
52441;BME280;39611;46.062;8.950;2023-01-28T02:49:42;96382.97;;;0.50;76.95
52441;BME280;39611;46.062;8.950;2023-01-28T02:55:23;96384.94;;;0.55;77.19
52441;BME280;39611;46.062;8.950;2023-01-28T03:03:14;96395.22;;;0.43;77.76
52441;BME280;39611;46.062;8.950;2023-01-28T03:05:46;96393.47;;;0.37;78.27
52441;BME280;39611;46.062;8.950;2023-01-28T03:08:39;96392.34;;;0.51;77.47
52441;BME280;39611;46.062;8.950;2023-01-28T03:11:26;96398.41;;;0.45;78.33
52441;BME280;39611;46.062;8.950;2023-01-28T03:14:12;96390.00;;;0.43;78.27
52441;BME280;39611;46.062;8.950;2023-01-28T03:16:59;96385.19;;;0.47;78.16
52441;BME280;39611;46.062;8.950;2023-01-28T03:19:45;96384.03;;;0.36;78.41
52441;BME280;39611;46.062;8.950;2023-01-28T03:22:33;96392.69;;;0.30;78.06
52441;BME280;39611;46.062;8.950;2023-01-28T03:25:22;96393.38;;;0.18;78.04
52441;BME280;39611;46.062;8.950;2023-01-28T03:28:15;96396.16;;;0.24;77.59
52441;BME280;39611;46.062;8.950;2023-01-28T03:31:06;96404.34;;;0.20;77.59
52441;BME280;39611;46.062;8.950;2023-01-28T03:33:53;96405.38;;;0.13;77.78
52441;BME280;39611;46.062;8.950;2023-01-28T03:36:39;96402.25;;;0.04;78.58
52441;BME280;39611;46.062;8.950;2023-01-28T03:39:24;96404.94;;;0.22;77.60
52441;BME280;39611;46.062;8.950;2023-01-28T03:42:00;96400.59;;;0.16;77.66
52441;BME280;39611;46.062;8.950;2023-01-28T03:44:27;96399.38;;;0.19;77.74
52441;BME280;39611;46.062;8.950;2023-01-28T03:47:13;96404.34;;;0.20;77.17
52441;BME280;39611;46.062;8.950;2023-01-28T03:49:44;96399.38;;;0.19;77.39
52441;BME280;39611;46.062;8.950;2023-01-28T03:52:11;96401.22;;;0.12;78.27
52441;BME280;39611;46.062;8.950;2023-01-28T03:54:38;96404.66;;;-0.01;78.35
52441;BME280;39611;46.062;8.950;2023-01-28T03:57:04;96407.03;;;0.07;78.22
52441;BME280;39611;46.062;8.950;2023-01-28T03:59:34;96407.28;;;-0.01;78.08
52441;BME280;39611;46.062;8.950;2023-01-28T04:02:00;96413.16;;;0.19;77.60
52441;BME280;39611;46.062;8.950;2023-01-28T04:04:29;96409.69;;;0.01;78.24
52441;BME280;39611;46.062;8.950;2023-01-28T04:06:58;96408.47;;;-0.04;78.39
52441;BME280;39611;46.062;8.950;2023-01-28T04:09:25;96418.44;;;0.06;77.92
52441;BME280;39611;46.062;8.950;2023-01-28T04:11:51;96406.22;;;0.13;77.62
52441;BME280;39611;46.062;8.950;2023-01-28T04:14:18;96407.78;;;0.14;77.17
52441;BME280;39611;46.062;8.950;2023-01-28T04:16:45;96417.06;;;0.04;77.42
52441;BME280;39611;46.062;8.950;2023-01-28T04:19:11;96414.22;;;0.05;77.08
52441;BME280;39611;46.062;8.950;2023-01-28T04:21:38;96408.97;;;-0.20;77.97
52441;BME280;39611;46.062;8.950;2023-01-28T04:24:05;96414.53;;;-0.16;77.94
52441;BME280;39611;46.062;8.950;2023-01-28T04:26:32;96418.88;;;-0.04;77.95
52441;BME280;39611;46.062;8.950;2023-01-28T04:28:58;96419.22;;;0.13;77.11
52441;BME280;39611;46.062;8.950;2023-01-28T04:31:25;96418.63;;;0.05;77.57
52441;BME280;39611;46.062;8.950;2023-01-28T04:33:51;96421.03;;;0.06;78.12
52441;BME280;39611;46.062;8.950;2023-01-28T04:36:18;96424.13;;;-0.10;78.65
52441;BME280;39611;46.062;8.950;2023-01-28T04:38:44;96419.84;;;0.02;78.06
52441;BME280;39611;46.062;8.950;2023-01-28T04:41:11;96425.06;;;0.02;77.79
52441;BME280;39611;46.062;8.950;2023-01-28T04:43:37;96426.31;;;-0.07;77.84
52441;BME280;39611;46.062;8.950;2023-01-28T04:46:04;96425.13;;;-0.11;77.41
52441;BME280;39611;46.062;8.950;2023-01-28T04:48:30;96432.13;;;-0.18;78.05
52441;BME280;39611;46.062;8.950;2023-01-28T04:50:57;96432.38;;;-0.27;77.75
52441;BME280;39611;46.062;8.950;2023-01-28T04:53:23;96437.56;;;-0.27;78.25
52441;BME280;39611;46.062;8.950;2023-01-28T04:55:50;96437.81;;;-0.41;77.66
52441;BME280;39611;46.062;8.950;2023-01-28T04:58:16;96437.94;;;-0.16;76.69
52441;BME280;39611;46.062;8.950;2023-01-28T05:00:43;96440.72;;;-0.11;76.93
52441;BME280;39611;46.062;8.950;2023-01-28T05:03:09;96447.53;;;-0.10;76.48
52441;BME280;39611;46.062;8.950;2023-01-28T05:05:35;96455.75;;;-0.20;76.33
52441;BME280;39611;46.062;8.950;2023-01-28T05:08:02;96454.34;;;-0.23;76.77
52441;BME280;39611;46.062;8.950;2023-01-28T05:10:28;96460.59;;;-0.37;77.45
52441;BME280;39611;46.062;8.950;2023-01-28T05:12:55;96468.41;;;-0.43;78.16
52441;BME280;39611;46.062;8.950;2023-01-28T05:15:21;96463.19;;;-0.37;78.03
52441;BME280;39611;46.062;8.950;2023-01-28T05:17:48;96464.78;;;-0.36;77.95
52441;BME280;39611;46.062;8.950;2023-01-28T05:20:14;96478.75;;;-0.17;77.26
52441;BME280;39611;46.062;8.950;2023-01-28T05:22:41;96473.91;;;-0.13;76.85
52441;BME280;39611;46.062;8.950;2023-01-28T05:25:08;96482.94;;;-0.16;76.67
52441;BME280;39611;46.062;8.950;2023-01-28T05:27:34;96489.16;;;-0.30;76.99
52441;BME280;39611;46.062;8.950;2023-01-28T05:30:01;96493.97;;;-0.34;76.96
52441;BME280;39611;46.062;8.950;2023-01-28T05:32:27;96493.59;;;-0.31;77.12
52441;BME280;39611;46.062;8.950;2023-01-28T05:34:54;96497.94;;;-0.25;77.38
52441;BME280;39611;46.062;8.950;2023-01-28T05:37:20;96498.53;;;-0.16;75.99
52441;BME280;39611;46.062;8.950;2023-01-28T05:39:47;96496.75;;;-0.15;76.93
52441;BME280;39611;46.062;8.950;2023-01-28T05:42:13;96505.97;;;-0.33;77.37
52441;BME280;39611;46.062;8.950;2023-01-28T05:44:40;96509.75;;;-0.29;76.72
52441;BME280;39611;46.062;8.950;2023-01-28T05:47:07;96517.75;;;-0.17;76.48
52441;BME280;39611;46.062;8.950;2023-01-28T05:49:33;96509.16;;;-0.24;76.93
52441;BME280;39611;46.062;8.950;2023-01-28T05:52:00;96503.97;;;-0.31;77.44
52441;BME280;39611;46.062;8.950;2023-01-28T05:54:27;96509.56;;;-0.27;77.14
52441;BME280;39611;46.062;8.950;2023-01-28T05:56:54;96515.97;;;-0.36;76.54
52441;BME280;39611;46.062;8.950;2023-01-28T05:59:20;96513.56;;;-0.38;76.52
52441;BME280;39611;46.062;8.950;2023-01-28T06:01:47;96514.16;;;-0.29;76.66
52441;BME280;39611;46.062;8.950;2023-01-28T06:04:13;96517.97;;;-0.45;77.43
52441;BME280;39611;46.062;8.950;2023-01-28T06:06:40;96510.56;;;-0.35;76.40
52441;BME280;39611;46.062;8.950;2023-01-28T06:09:06;96509.78;;;-0.42;75.71
52441;BME280;39611;46.062;8.950;2023-01-28T06:11:32;96513.56;;;-0.25;75.38
52441;BME280;39611;46.062;8.950;2023-01-28T06:13:59;96516.75;;;-0.23;75.57
52441;BME280;39611;46.062;8.950;2023-01-28T06:16:25;96527.97;;;-0.35;75.75
52441;BME280;39611;46.062;8.950;2023-01-28T06:18:51;96530.97;;;-0.45;75.75
52441;BME280;39611;46.062;8.950;2023-01-28T06:21:18;96527.78;;;-0.60;76.41
52441;BME280;39611;46.062;8.950;2023-01-28T06:23:44;96533.97;;;-0.48;76.41
52441;BME280;39611;46.062;8.950;2023-01-28T06:26:11;96527.59;;;-0.46;76.36
52441;BME280;39611;46.062;8.950;2023-01-28T06:28:37;96532.38;;;-0.69;76.58
52441;BME280;39611;46.062;8.950;2023-01-28T06:31:04;96538.38;;;-0.69;76.78
52441;BME280;39611;46.062;8.950;2023-01-28T06:33:30;96548.59;;;-0.67;76.38
52441;BME280;39611;46.062;8.950;2023-01-28T06:35:57;96544.19;;;-0.53;75.91
52441;BME280;39611;46.062;8.950;2023-01-28T06:38:24;96542.78;;;-0.49;75.24
52441;BME280;39611;46.062;8.950;2023-01-28T06:40:51;96548.75;;;-0.35;75.77
52441;BME280;39611;46.062;8.950;2023-01-28T06:43:18;96549.56;;;-0.48;75.84
52441;BME280;39611;46.062;8.950;2023-01-28T06:45:44;96555.16;;;-0.58;76.21
52441;BME280;39611;46.062;8.950;2023-01-28T06:48:10;96558.78;;;-0.39;75.70
52441;BME280;39611;46.062;8.950;2023-01-28T06:50:37;96554.56;;;-0.53;75.88
52441;BME280;39611;46.062;8.950;2023-01-28T06:53:04;96561.56;;;-0.60;76.34
52441;BME280;39611;46.062;8.950;2023-01-28T06:55:30;96556.75;;;-0.90;77.36
52441;BME280;39611;46.062;8.950;2023-01-28T06:57:56;96557.16;;;-0.73;76.98
52441;BME280;39611;46.062;8.950;2023-01-28T07:00:23;96566.78;;;-0.54;76.37
52441;BME280;39611;46.062;8.950;2023-01-28T07:02:49;96557.97;;;-0.59;76.47
52441;BME280;39611;46.062;8.950;2023-01-28T07:05:16;96555.78;;;-0.56;74.94
52441;BME280;39611;46.062;8.950;2023-01-28T07:07:42;96561.56;;;-0.60;75.70
52441;BME280;39611;46.062;8.950;2023-01-28T07:10:10;96563.94;;;-0.52;75.85
52441;BME280;39611;46.062;8.950;2023-01-28T07:12:36;96567.75;;;-0.61;76.33
52441;BME280;39611;46.062;8.950;2023-01-28T07:15:03;96570.97;;;-0.46;74.72
52441;BME280;39611;46.062;8.950;2023-01-28T07:17:30;96568.16;;;-0.45;75.88
52441;BME280;39611;46.062;8.950;2023-01-28T07:19:56;96577.56;;;-0.57;76.59
52441;BME280;39611;46.062;8.950;2023-01-28T07:22:23;96584.34;;;-0.69;76.68
52441;BME280;39611;46.062;8.950;2023-01-28T07:24:49;96581.56;;;-0.61;76.49
52441;BME280;39611;46.062;8.950;2023-01-28T07:27:16;96585.56;;;-0.58;76.92
52441;BME280;39611;46.062;8.950;2023-01-28T07:29:42;96581.53;;;-0.68;76.66
52441;BME280;39611;46.062;8.950;2023-01-28T07:32:08;96595.75;;;-0.57;76.93
52441;BME280;39611;46.062;8.950;2023-01-28T07:34:35;96598.75;;;-0.53;76.90
52441;BME280;39611;46.062;8.950;2023-01-28T07:37:05;96592.94;;;-0.62;76.32
52441;BME280;39611;46.062;8.950;2023-01-28T07:39:31;96598.34;;;-0.57;76.44
52441;BME280;39611;46.062;8.950;2023-01-28T07:41:58;96602.53;;;-0.42;76.24
52441;BME280;39611;46.062;8.950;2023-01-28T07:44:24;96602.34;;;-0.41;76.35
52441;BME280;39611;46.062;8.950;2023-01-28T07:46:51;96607.97;;;-0.44;76.20
52441;BME280;39611;46.062;8.950;2023-01-28T07:49:17;96598.75;;;-0.33;75.93
52441;BME280;39611;46.062;8.950;2023-01-28T07:51:44;96606.53;;;-0.40;74.81
52441;BME280;39611;46.062;8.950;2023-01-28T07:54:12;96608.34;;;-0.47;73.84
52441;BME280;39611;46.062;8.950;2023-01-28T07:56:38;96605.56;;;-0.26;72.53
52441;BME280;39611;46.062;8.950;2023-01-28T07:59:05;96607.91;;;-0.11;71.66
52441;BME280;39611;46.062;8.950;2023-01-28T08:01:31;96608.34;;;-0.07;72.34
52441;BME280;39611;46.062;8.950;2023-01-28T08:03:58;96616.34;;;-0.22;73.78
52441;BME280;39611;46.062;8.950;2023-01-28T08:06:24;96619.53;;;-0.13;74.42
52441;BME280;39611;46.062;8.950;2023-01-28T08:08:53;96623.75;;;-0.39;74.58
52441;BME280;39611;46.062;8.950;2023-01-28T08:11:19;96625.72;;;-0.21;73.91
52441;BME280;39611;46.062;8.950;2023-01-28T08:13:47;96627.34;;;-0.20;74.38
52441;BME280;39611;46.062;8.950;2023-01-28T08:16:14;96629.75;;;-0.05;75.08
52441;BME280;39611;46.062;8.950;2023-01-28T08:18:40;96629.53;;;-0.10;75.07
52441;BME280;39611;46.062;8.950;2023-01-28T08:21:07;96637.13;;;-0.02;73.74
52441;BME280;39611;46.062;8.950;2023-01-28T08:23:33;96633.31;;;0.07;71.94
52441;BME280;39611;46.062;8.950;2023-01-28T08:26:00;96633.50;;;0.12;73.23
52441;BME280;39611;46.062;8.950;2023-01-28T08:28:26;96639.69;;;0.25;72.40
52441;BME280;39611;46.062;8.950;2023-01-28T08:30:53;96638.69;;;0.26;71.21
52441;BME280;39611;46.062;8.950;2023-01-28T08:33:19;96638.88;;;0.31;71.74
52441;BME280;39611;46.062;8.950;2023-01-28T08:35:46;96635.88;;;0.34;72.03
52441;BME280;39611;46.062;8.950;2023-01-28T08:38:13;96644.06;;;0.31;72.15
52441;BME280;39611;46.062;8.950;2023-01-28T08:40:43;96651.50;;;0.34;72.24
52441;BME280;39611;46.062;8.950;2023-01-28T08:43:09;96645.84;;;0.43;70.91
52441;BME280;39611;46.062;8.950;2023-01-28T08:45:35;96649.06;;;0.52;70.92
52441;BME280;39611;46.062;8.950;2023-01-28T08:48:06;96650.44;;;0.48;71.26
52441;BME280;39611;46.062;8.950;2023-01-28T08:50:35;96653.25;;;0.53;70.37
52441;BME280;39611;46.062;8.950;2023-01-28T08:53:04;96656.03;;;0.58;70.53
52441;BME280;39611;46.062;8.950;2023-01-28T08:55:32;96654.63;;;0.62;70.10
52441;BME280;39611;46.062;8.950;2023-01-28T08:58:04;96662.81;;;0.73;69.84
52441;BME280;39611;46.062;8.950;2023-01-28T09:00:32;96662.16;;;0.77;68.92
52441;BME280;39611;46.062;8.950;2023-01-28T09:02:58;96669.97;;;0.84;70.64
52441;BME280;39611;46.062;8.950;2023-01-28T09:05:25;96667.41;;;0.71;70.70
52441;BME280;39611;46.062;8.950;2023-01-28T09:07:51;96674.81;;;0.74;69.36
52441;BME280;39611;46.062;8.950;2023-01-28T09:10:18;96668.97;;;0.85;68.92
52441;BME280;39611;46.062;8.950;2023-01-28T09:12:45;96668.34;;;0.90;67.94
52441;BME280;39611;46.062;8.950;2023-01-28T09:15:12;96676.56;;;0.86;67.36
52441;BME280;39611;46.062;8.950;2023-01-28T09:17:39;96670.53;;;0.99;65.68
52441;BME280;39611;46.062;8.950;2023-01-28T09:20:06;96676.31;;;1.01;67.32
52441;BME280;39611;46.062;8.950;2023-01-28T09:22:33;96683.31;;;1.01;68.18
52441;BME280;39611;46.062;8.950;2023-01-28T09:25:00;96675.06;;;1.11;67.69
52441;BME280;39611;46.062;8.950;2023-01-28T09:27:26;96682.47;;;1.14;68.40
52441;BME280;39611;46.062;8.950;2023-01-28T09:29:53;96684.50;;;1.12;67.23
52441;BME280;39611;46.062;8.950;2023-01-28T09:32:19;96683.25;;;1.21;65.72
52441;BME280;39611;46.062;8.950;2023-01-28T09:34:46;96676.19;;;1.28;65.60
52441;BME280;39611;46.062;8.950;2023-01-28T09:37:12;96683.56;;;1.38;65.64
52441;BME280;39611;46.062;8.950;2023-01-28T09:39:39;96683.00;;;1.29;64.47
52441;BME280;39611;46.062;8.950;2023-01-28T09:45:13;96684.47;;;1.50;64.54
52441;BME280;39611;46.062;8.950;2023-01-28T09:47:51;96688.66;;;1.58;64.48
52441;BME280;39611;46.062;8.950;2023-01-28T09:50:30;96686.63;;;1.60;65.34
52441;BME280;39611;46.062;8.950;2023-01-28T09:53:04;96683.00;;;1.61;65.39
52441;BME280;39611;46.062;8.950;2023-01-28T09:55:37;96685.56;;;1.67;66.23
52441;BME280;39611;46.062;8.950;2023-01-28T09:58:12;96679.47;;;1.80;63.99
52441;BME280;39611;46.062;8.950;2023-01-28T10:00:54;96681.19;;;1.93;63.06
52441;BME280;39611;46.062;8.950;2023-01-28T10:03:52;96677.56;;;1.94;64.24
52441;BME280;39611;46.062;8.950;2023-01-28T10:14:52;96678.19;;;2.14;64.45
52441;BME280;39611;46.062;8.950;2023-01-28T10:20:03;96676.78;;;2.18;60.86
52441;BME280;39611;46.062;8.950;2023-01-28T10:22:36;96673.25;;;2.31;60.89
52441;BME280;39611;46.062;8.950;2023-01-28T10:25:06;96678.63;;;2.36;61.96
52441;BME280;39611;46.062;8.950;2023-01-28T10:27:41;96669.44;;;2.27;61.21
52441;BME280;39611;46.062;8.950;2023-01-28T10:30:18;96667.00;;;2.32;62.89
52441;BME280;39611;46.062;8.950;2023-01-28T10:32:52;96667.44;;;2.48;63.25
52441;BME280;39611;46.062;8.950;2023-01-28T10:35:20;96659.78;;;2.53;61.73
52441;BME280;39611;46.062;8.950;2023-01-28T10:37:46;96662.22;;;2.48;62.08
52441;BME280;39611;46.062;8.950;2023-01-28T10:40:17;96649.91;;;2.36;60.86
52441;BME280;39611;46.062;8.950;2023-01-28T10:42:44;96651.44;;;2.44;60.62
52441;BME280;39611;46.062;8.950;2023-01-28T10:45:25;96652.00;;;2.46;59.87
52441;BME280;39611;46.062;8.950;2023-01-28T10:48:06;96655.34;;;2.53;58.82
52441;BME280;39611;46.062;8.950;2023-01-28T10:50:34;96651.16;;;2.71;59.51
52441;BME280;39611;46.062;8.950;2023-01-28T10:53:02;96646.72;;;2.71;58.72
52441;BME280;39611;46.062;8.950;2023-01-28T10:55:33;96653.09;;;2.75;58.23
52441;BME280;39611;46.062;8.950;2023-01-28T10:58:03;96639.44;;;2.92;57.28
52441;BME280;39611;46.062;8.950;2023-01-28T11:00:35;96633.91;;;3.00;57.48
52441;BME280;39611;46.062;8.950;2023-01-28T11:03:02;96626.31;;;2.98;57.05
52441;BME280;39611;46.062;8.950;2023-01-28T11:05:30;96618.38;;;3.05;58.12
52441;BME280;39611;46.062;8.950;2023-01-28T11:08:13;96628.97;;;3.10;57.71
52441;BME280;39611;46.062;8.950;2023-01-28T11:10:41;96619.41;;;3.04;54.84
52441;BME280;39611;46.062;8.950;2023-01-28T11:13:18;96622.03;;;3.16;53.43
52441;BME280;39611;46.062;8.950;2023-01-28T11:16:01;96619.22;;;3.17;55.64
52441;BME280;39611;46.062;8.950;2023-01-28T11:18:32;96619.81;;;3.19;55.08
52441;BME280;39611;46.062;8.950;2023-01-28T11:21:02;96614.00;;;3.17;54.72
52441;BME280;39611;46.062;8.950;2023-01-28T11:23:32;96616.72;;;3.22;54.76
52441;BME280;39611;46.062;8.950;2023-01-28T11:28:31;96616.31;;;3.37;54.79
52441;BME280;39611;46.062;8.950;2023-01-28T11:30:59;96616.09;;;3.39;53.58
52441;BME280;39611;46.062;8.950;2023-01-28T11:33:35;96612.03;;;3.43;51.55
52441;BME280;39611;46.062;8.950;2023-01-28T11:36:23;96606.56;;;3.44;52.09
52441;BME280;39611;46.062;8.950;2023-01-28T11:38:58;96605.97;;;3.42;53.16
52441;BME280;39611;46.062;8.950;2023-01-28T11:41:35;96597.72;;;3.57;51.82
52441;BME280;39611;46.062;8.950;2023-01-28T11:44:19;96597.25;;;3.60;51.46
52441;BME280;39611;46.062;8.950;2023-01-28T11:50:00;96590.00;;;3.62;51.81
52441;BME280;39611;46.062;8.950;2023-01-28T11:55:59;96580.47;;;3.80;51.25
52441;BME280;39611;46.062;8.950;2023-01-28T11:59:29;96576.69;;;3.76;49.63
52441;BME280;39611;46.062;8.950;2023-01-28T12:02:30;96570.56;;;3.82;51.01
52441;BME280;39611;46.062;8.950;2023-01-28T12:13:24;96553.13;;;3.99;53.17
52441;BME280;39611;46.062;8.950;2023-01-28T12:16:10;96543.81;;;4.03;54.20
52441;BME280;39611;46.062;8.950;2023-01-28T12:18:44;96543.81;;;4.03;52.13
52441;BME280;39611;46.062;8.950;2023-01-28T12:29:40;96528.66;;;4.17;52.77
52441;BME280;39611;46.062;8.950;2023-01-28T12:32:17;96516.25;;;4.12;51.02
52441;BME280;39611;46.062;8.950;2023-01-28T12:35:13;96507.03;;;4.22;49.04
52441;BME280;39611;46.062;8.950;2023-01-28T12:38:13;96519.66;;;4.25;48.45
52441;BME280;39611;46.062;8.950;2023-01-28T12:43:44;96512.34;;;4.27;47.16
52441;BME280;39611;46.062;8.950;2023-01-28T12:51:38;96508.00;;;4.32;47.41
52441;BME280;39611;46.062;8.950;2023-01-28T12:54:18;96504.22;;;4.40;47.38
52441;BME280;39611;46.062;8.950;2023-01-28T12:56:51;96495.50;;;4.34;48.04
52441;BME280;39611;46.062;8.950;2023-01-28T13:02:16;96502.41;;;4.41;48.09
52441;BME280;39611;46.062;8.950;2023-01-28T13:05:04;96505.75;;;4.36;48.51
52441;BME280;39611;46.062;8.950;2023-01-28T13:07:44;96498.56;;;4.31;47.86
52441;BME280;39611;46.062;8.950;2023-01-28T13:10:42;96508.91;;;4.38;47.81
52441;BME280;39611;46.062;8.950;2023-01-28T13:15:57;96501.78;;;4.33;48.15
52441;BME280;39611;46.062;8.950;2023-01-28T13:29:30;96499.50;;;4.54;49.15
52441;BME280;39611;46.062;8.950;2023-01-28T13:32:00;96502.59;;;4.51;47.70
52441;BME280;39611;46.062;8.950;2023-01-28T13:37:02;96503.59;;;4.62;47.97
52441;BME280;39611;46.062;8.950;2023-01-28T13:39:33;96507.72;;;4.57;49.01
52441;BME280;39611;46.062;8.950;2023-01-28T13:42:21;96506.31;;;4.67;47.88
52441;BME280;39611;46.062;8.950;2023-01-28T13:44:48;96512.47;;;4.72;46.69
52441;BME280;39611;46.062;8.950;2023-01-28T13:50:14;96521.69;;;4.63;45.64
52441;BME280;39611;46.062;8.950;2023-01-28T13:53:03;96510.91;;;4.59;46.84
52441;BME280;39611;46.062;8.950;2023-01-28T13:55:36;96505.97;;;4.63;46.81
52441;BME280;39611;46.062;8.950;2023-01-28T14:06:51;96509.38;;;4.75;46.07
52441;BME280;39611;46.062;8.950;2023-01-28T14:20:40;96522.22;;;4.77;46.42
52441;BME280;39611;46.062;8.950;2023-01-28T14:23:13;96530.66;;;4.79;46.12
52441;BME280;39611;46.062;8.950;2023-01-28T14:26:05;96523.81;;;4.78;44.96
52441;BME280;39611;46.062;8.950;2023-01-28T14:28:51;96529.06;;;4.78;45.91
52441;BME280;39611;46.062;8.950;2023-01-28T14:31:27;96524.75;;;4.72;46.32
52441;BME280;39611;46.062;8.950;2023-01-28T14:34:05;96523.16;;;4.71;46.17
52441;BME280;39611;46.062;8.950;2023-01-28T14:36:37;96521.91;;;4.73;45.92
52441;BME280;39611;46.062;8.950;2023-01-28T14:39:05;96523.72;;;4.73;46.40
52441;BME280;39611;46.062;8.950;2023-01-28T14:41:36;96522.13;;;4.72;46.06
52441;BME280;39611;46.062;8.950;2023-01-28T14:44:06;96522.22;;;4.77;45.03
52441;BME280;39611;46.062;8.950;2023-01-28T14:46:45;96529.06;;;4.78;45.38
52441;BME280;39611;46.062;8.950;2023-01-28T14:49:32;96524.94;;;4.82;45.28
52441;BME280;39611;46.062;8.950;2023-01-28T14:52:17;96528.28;;;4.77;45.68
52441;BME280;39611;46.062;8.950;2023-01-28T14:57:49;96525.88;;;4.76;44.29
52441;BME280;39611;46.062;8.950;2023-01-28T15:00:21;96529.06;;;4.78;44.51
52441;BME280;39611;46.062;8.950;2023-01-28T15:02:48;96535.00;;;4.73;45.68
52441;BME280;39611;46.062;8.950;2023-01-28T15:05:21;96537.31;;;4.70;46.10
52441;BME280;39611;46.062;8.950;2023-01-28T15:07:48;96530.03;;;4.60;46.27
52441;BME280;39611;46.062;8.950;2023-01-28T15:13:07;96535.59;;;4.64;44.94
52441;BME280;39611;46.062;8.950;2023-01-28T15:15:35;96543.72;;;4.62;45.39
52441;BME280;39611;46.062;8.950;2023-01-28T15:18:17;96538.13;;;4.58;45.46
52441;BME280;39611;46.062;8.950;2023-01-28T15:20:46;96541.78;;;4.57;46.17
52441;BME280;39611;46.062;8.950;2023-01-28T15:23:16;96543.25;;;4.53;47.11
52441;BME280;39611;46.062;8.950;2023-01-28T15:25:43;96544.72;;;4.61;45.61